Time;durP1;ratioP1;P1;durP2;ratioP2;P2;SDS_P1;SDS_P2;PMS_P1;PMS_P2;Temp;Humidity;BMP_temperature;BMP_pressure;BME280_temperature;BME280_humidity;BME280_pressure;Samples;Min_cycle;Max_cycle;Signal;HPM_P1;HPM_P2
2021/12/07 00:00:24;;;;;;;3.28;2.33;;;;;;;10.60;51.88;100283.53;4957148;29;20106;-57
2021/12/07 00:02:49;;;;;;;4.30;2.63;;;;;;;10.65;51.50;100297.34;4940101;29;20031;-57
2021/12/07 00:05:16;;;;;;;6.20;2.97;;;;;;;10.67;51.34;100299.84;4940285;29;20499;-57
2021/12/07 00:07:43;;;;;;;6.43;3.50;;;;;;;10.68;51.23;100302.41;4939890;29;20034;-57
2021/12/07 00:10:10;;;;;;;4.63;3.13;;;;;;;10.64;50.94;100295.63;4957053;29;20070;-57
2021/12/07 00:12:39;;;;;;;8.32;3.50;;;;;;;10.64;51.61;100301.00;4957244;29;20031;-57
2021/12/07 00:15:06;;;;;;;4.47;3.30;;;;;;;10.67;51.63;100300.72;4957240;29;20126;-57
2021/12/07 00:17:33;;;;;;;5.63;3.88;;;;;;;10.70;51.82;100316.50;4957325;29;20027;-58
2021/12/07 00:19:59;;;;;;;7.47;3.47;;;;;;;10.74;51.58;100317.06;4939675;29;20031;-56
2021/12/07 00:22:25;;;;;;;5.78;3.65;;;;;;;10.78;51.54;100321.13;4956468;29;20089;-57
2021/12/07 00:24:50;;;;;;;12.77;4.57;;;;;;;10.83;51.34;100325.06;4939447;29;20027;-57
2021/12/07 00:27:16;;;;;;;7.90;4.28;;;;;;;10.86;51.23;100338.19;4955722;28;20043;-56
2021/12/07 00:29:41;;;;;;;12.48;4.20;;;;;;;10.87;51.53;100323.81;4923215;29;20400;-57
2021/12/07 00:32:26;;;;;;;13.50;4.25;;;;;;;10.87;51.56;100331.84;4939331;29;20488;-58
2021/12/07 00:35:34;;;;;;;14.20;3.90;;;;;;;10.87;50.98;100339.88;4956164;29;20043;-58
2021/12/07 00:37:44;;;;;;;6.10;3.92;;;;;;;10.90;51.39;100354.81;4948380;29;20035;-57
2021/12/07 00:40:12;;;;;;;6.75;2.83;;;;;;;10.92;51.66;100353.69;4956194;29;20082;-56
2021/12/07 00:42:37;;;;;;;10.02;2.90;;;;;;;10.95;51.26;100352.56;4956326;29;20464;-58
2021/12/07 00:45:04;;;;;;;4.55;2.63;;;;;;;10.98;51.51;100355.81;4939721;29;20118;-58
2021/12/07 00:47:29;;;;;;;7.55;2.22;;;;;;;10.99;51.38;100354.81;4956255;29;20043;-58
2021/12/07 00:49:55;;;;;;;6.05;1.92;;;;;;;10.90;51.72;100336.94;4956401;29;20069;-57
2021/12/07 00:52:20;;;;;;;2.65;1.67;;;;;;;10.98;51.35;100352.28;4939306;29;20476;-56
2021/12/07 00:54:45;;;;;;;2.28;1.23;;;;;;;10.99;51.33;100352.16;4933865;29;20035;-58
2021/12/07 00:57:11;;;;;;;2.03;1.02;;;;;;;11.00;51.22;100356.50;4945538;29;20047;-58
2021/12/07 00:59:36;;;;;;;6.70;1.73;;;;;;;11.04;50.87;100363.28;4929595;29;20114;-58
2021/12/07 01:02:02;;;;;;;6.78;1.58;;;;;;;11.06;51.83;100372.00;4947238;29;20087;-57
2021/12/07 01:04:28;;;;;;;4.53;1.88;;;;;;;11.10;51.81;100375.25;4945231;29;20031;-57
2021/12/07 01:25:39;;;;;;;11.70;3.00;;;;;;;11.17;51.42;100413.06;4929526;29;20121;-57
2021/12/07 01:28:22;;;;;;;15.10;3.30;;;;;;;11.20;51.73;100413.59;4946549;29;20035;-57
2021/12/07 01:50:07;;;;;;;9.88;3.13;;;;;;;11.42;51.96;100452.66;4929570;29;20097;-57
2021/12/07 01:59:50;;;;;;;11.50;2.88;;;;;;;11.47;52.03;100479.91;4956424;29;20035;-57
2021/12/07 02:02:17;;;;;;;5.47;2.78;;;;;;;11.50;52.12;100485.00;4956079;29;20027;-57
2021/12/07 02:04:43;;;;;;;8.90;2.50;;;;;;;11.52;51.95;100488.38;4956315;29;20043;-58
2021/12/07 02:07:10;;;;;;;3.63;2.28;;;;;;;11.58;52.17;100487.78;4956114;29;20027;-57
2021/12/07 02:09:39;;;;;;;7.60;2.47;;;;;;;11.59;52.18;100494.84;4955733;29;20072;-57
2021/12/07 02:12:06;;;;;;;11.43;2.20;;;;;;;11.58;52.31;100487.78;4956391;29;20035;-57
2021/12/07 02:14:32;;;;;;;11.25;2.28;;;;;;;11.61;51.28;100492.88;4956254;29;20031;-57
2021/12/07 02:17:00;;;;;;;9.07;2.10;;;;;;;11.65;51.93;100496.94;4956147;29;20032;-58
2021/12/07 02:19:26;;;;;;;7.50;2.28;;;;;;;11.65;51.31;100494.25;4956130;29;20030;-56
2021/12/07 02:21:53;;;;;;;7.55;2.33;;;;;;;11.67;51.97;100500.31;4955811;29;20031;-57
2021/12/07 02:24:19;;;;;;;10.52;2.08;;;;;;;11.69;51.74;100501.06;4956017;29;20094;-57
2021/12/07 02:26:47;;;;;;;10.35;2.75;;;;;;;11.68;51.37;100507.38;4955598;29;20039;-58
2021/12/07 02:29:13;;;;;;;8.15;2.20;;;;;;;11.68;51.67;100518.13;4956106;29;20046;-57
2021/12/07 02:31:39;;;;;;;7.70;2.58;;;;;;;11.67;51.37;100513.72;4955868;29;20031;-57
2021/12/07 02:34:04;;;;;;;11.98;2.70;;;;;;;11.66;51.45;100523.66;4955984;29;20476;-57
2021/12/07 02:36:30;;;;;;;9.85;2.10;;;;;;;11.66;51.83;100520.09;4938633;29;20086;-58
2021/12/07 02:38:56;;;;;;;11.55;1.95;;;;;;;11.64;52.11;100528.28;4955912;29;20031;-56
2021/12/07 02:41:21;;;;;;;8.32;2.17;;;;;;;11.64;51.14;100524.78;4955531;29;20047;-57
2021/12/07 02:43:47;;;;;;;3.90;2.20;;;;;;;11.67;51.64;100529.81;4938696;29;20118;-57
2021/12/07 02:46:13;;;;;;;8.68;2.10;;;;;;;11.69;51.33;100535.97;4955768;29;20488;-57
2021/12/07 02:48:39;;;;;;;13.73;2.25;;;;;;;11.70;51.35;100537.63;4955972;28;20035;-57
2021/12/07 02:51:04;;;;;;;7.00;2.38;;;;;;;11.69;51.50;100538.63;4942315;29;20062;-58
2021/12/07 02:53:36;;;;;;;8.00;1.83;;;;;;;11.73;51.46;100545.38;4959656;29;20162;-57
2021/12/07 02:56:03;;;;;;;10.32;2.13;;;;;;;11.75;51.02;100558.69;4959488;29;20204;-58
2021/12/07 02:58:29;;;;;;;12.30;2.05;;;;;;;11.74;51.22;100559.66;4959367;29;20468;-57
2021/12/07 03:01:03;;;;;;;9.88;1.83;;;;;;;11.68;51.78;100561.91;4959668;29;20034;-57
2021/12/07 03:03:32;;;;;;;6.53;2.50;;;;;;;11.73;51.34;100566.84;4959871;29;20027;-57
2021/12/07 03:27:20;;;;;;;9.30;2.03;;;;;;;11.71;51.64;100603.72;4959015;29;20062;-57
2021/12/07 03:29:45;;;;;;;2.00;1.30;;;;;;;11.72;51.56;100604.56;4959037;29;20035;-57
2021/12/07 03:32:11;;;;;;;6.60;1.77;;;;;;;11.72;51.12;100597.38;4958934;29;20099;-57
2021/12/07 03:34:37;;;;;;;7.43;2.03;;;;;;;11.71;50.98;100603.72;4958811;29;20447;-57
2021/12/07 03:37:03;;;;;;;12.05;2.20;;;;;;;11.72;50.65;100610.78;4958131;29;20062;-56
2021/12/07 03:39:28;;;;;;;6.70;1.60;;;;;;;11.69;50.90;100611.06;4958645;29;20396;-57
2021/12/07 03:41:54;;;;;;;8.63;1.00;;;;;;;11.69;50.79;100627.19;4958754;29;20046;-56
2021/12/07 03:44:19;;;;;;;10.82;2.03;;;;;;;11.67;51.29;100613.00;4958859;29;20040;-57
2021/12/07 03:46:45;;;;;;;4.35;1.30;;;;;;;11.63;51.51;100625.03;4958422;29;20035;-57
2021/12/07 03:49:11;;;;;;;6.95;1.77;;;;;;;11.63;51.13;100635.75;4958662;29;20369;-58
2021/12/07 03:51:37;;;;;;;12.30;1.70;;;;;;;11.62;51.64;100639.41;4958606;29;20042;-58
2021/12/07 03:54:03;;;;;;;7.75;2.47;;;;;;;11.62;50.70;100642.09;4958818;29;20468;-57
2021/12/07 03:56:29;;;;;;;8.40;1.63;;;;;;;11.62;50.75;100642.94;4958700;29;20035;-57
2021/12/07 03:58:55;;;;;;;8.90;2.03;;;;;;;11.62;50.94;100653.69;4958351;29;20094;-58
2021/12/07 04:01:23;;;;;;;8.13;2.17;;;;;;;11.64;50.95;100662.41;4925189;29;20039;-56
2021/12/07 04:03:49;;;;;;;3.88;1.60;;;;;;;11.66;51.25;100659.63;4958105;29;20031;-58
2021/12/07 04:06:14;;;;;;;8.90;2.20;;;;;;;11.65;51.37;100663.28;4957908;29;20098;-57
2021/12/07 04:08:43;;;;;;;6.00;1.70;;;;;;;11.66;50.71;100662.31;4924852;29;20051;-56
2021/12/07 04:11:09;;;;;;;11.93;1.80;;;;;;;11.70;50.81;100663.72;4958443;28;20117;-58
2021/12/07 04:13:35;;;;;;;10.73;1.73;;;;;;;11.66;51.14;100664.97;4958311;29;20441;-58
2021/12/07 04:16:01;;;;;;;4.97;2.10;;;;;;;11.65;50.36;100672.19;4957536;29;20035;-57
2021/12/07 04:18:27;;;;;;;10.63;2.00;;;;;;;11.63;51.24;100668.78;4940967;29;20038;-58
2021/12/07 04:20:53;;;;;;;7.93;1.48;;;;;;;11.61;50.87;100675.28;4958077;29;20472;-57
2021/12/07 04:23:18;;;;;;;5.97;1.40;;;;;;;11.58;51.20;100679.09;4958000;29;20051;-57
2021/12/07 04:25:44;;;;;;;7.63;1.98;;;;;;;11.55;50.77;100684.75;4940512;29;20070;-58
2021/12/07 04:28:09;;;;;;;4.35;1.60;;;;;;;11.53;51.01;100688.56;4940720;29;20032;-56
2021/12/07 04:30:37;;;;;;;2.20;1.27;;;;;;;11.53;50.58;100683.19;4957947;29;20029;-57
2021/12/07 04:33:05;;;;;;;5.32;1.58;;;;;;;11.51;50.59;100677.09;4958002;29;20031;-58
2021/12/07 04:35:31;;;;;;;9.13;1.48;;;;;;;11.51;50.70;100685.13;4940729;29;20028;-57
2021/12/07 04:37:57;;;;;;;3.90;1.70;;;;;;;11.49;50.79;100695.16;4957793;29;20035;-57
2021/12/07 04:40:25;;;;;;;4.43;1.35;;;;;;;11.46;50.75;100693.63;4957498;29;20034;-58
2021/12/07 04:42:50;;;;;;;6.35;1.67;;;;;;;11.44;51.37;100689.38;4957283;29;20042;-57
2021/12/07 04:58:36;;;;;;;4.45;1.50;;;;;;;11.35;50.98;100698.25;4957285;29;20038;-57
2021/12/07 05:01:08;;;;;;;12.38;1.70;;;;;;;11.36;50.95;100721.41;4940196;29;20027;-57
2021/12/07 05:03:34;;;;;;;4.63;1.63;;;;;;;11.36;50.99;100719.53;4957259;29;20086;-57
2021/12/07 05:05:59;;;;;;;6.82;1.73;;;;;;;11.34;50.44;100721.53;4957389;29;20027;-57
2021/12/07 05:08:36;;;;;;;7.30;2.58;;;;;;;11.38;50.64;100717.59;4939753;28;20055;-58
2021/12/07 05:13:37;;;;;;;8.25;1.42;;;;;;;11.33;50.96;100710.94;4940264;29;20031;-56
2021/12/07 05:16:22;;;;;;;;;;;;;;;11.36;50.45;100721.41;4941524;29;20090;-58
2021/12/07 05:24:11;;;;;;;7.93;1.83;;;;;;;11.30;50.72;100725.47;4942230;29;20035;-58
2021/12/07 05:40:05;;;;;;;6.22;2.00;;;;;;;11.10;51.20;100743.31;4956852;29;20073;-57
2021/12/07 05:42:30;;;;;;;7.10;2.05;;;;;;;11.13;50.90;100757.44;4956682;29;20395;-58
2021/12/07 05:44:56;;;;;;;3.90;1.65;;;;;;;11.12;50.76;100767.31;4939342;29;20035;-57
2021/12/07 05:47:22;;;;;;;12.68;1.80;;;;;;;11.06;50.58;100768.69;4956304;29;20086;-56
2021/12/07 05:49:48;;;;;;;7.43;1.33;;;;;;;11.11;50.70;100777.16;4939431;29;20062;-57
2021/12/07 05:52:13;;;;;;;3.88;1.35;;;;;;;11.10;50.79;100780.84;4955849;29;20058;-57
2021/12/07 05:54:39;;;;;;;4.53;1.35;;;;;;;11.07;50.98;100785.63;4956388;29;20039;-57
2021/12/07 05:57:05;;;;;;;4.63;1.13;;;;;;;11.04;50.85;100786.75;4956470;29;20392;-57
2021/12/07 05:59:30;;;;;;;6.93;1.40;;;;;;;11.03;50.90;100782.34;4956262;29;20400;-56
2021/12/07 06:01:56;;;;;;;8.63;1.13;;;;;;;11.00;50.77;100787.13;4939053;29;20031;-56
2021/12/07 06:04:21;;;;;;;5.53;1.52;;;;;;;11.00;50.28;100801.38;4956081;29;20043;-58
2021/12/07 06:06:47;;;;;;;10.98;1.67;;;;;;;10.98;50.42;100800.66;4956125;29;20038;-58
2021/12/07 06:09:12;;;;;;;19.10;1.48;;;;;;;10.94;50.48;100807.25;4955832;29;20122;-57
2021/12/07 06:11:37;;;;;;;4.95;1.30;;;;;;;10.95;50.68;100808.13;4956112;29;20516;-58
2021/12/07 06:14:03;;;;;;;6.57;1.95;;;;;;;10.95;50.69;100808.97;4939151;29;20102;-58
2021/12/07 06:16:30;;;;;;;17.30;1.60;;;;;;;10.94;50.38;100812.63;4956230;29;20031;-58
2021/12/07 06:18:57;;;;;;;2.72;1.33;;;;;;;10.94;50.54;100820.66;4955969;29;20082;-57
2021/12/07 06:21:22;;;;;;;8.15;1.17;;;;;;;10.94;50.54;100825.19;4939083;29;20492;-57
2021/12/07 06:23:48;;;;;;;4.00;1.10;;;;;;;10.94;50.42;100828.69;4939449;29;20036;-58
2021/12/07 06:26:13;;;;;;;5.32;1.60;;;;;;;10.95;50.75;100833.09;4960017;29;20058;-56
2021/12/07 06:28:38;;;;;;;5.43;2.00;;;;;;;10.93;50.14;100815.44;4959572;29;20155;-56
2021/12/07 06:31:04;;;;;;;11.60;1.63;;;;;;;10.98;50.55;100823.94;4942922;29;20484;-57
2021/12/07 06:33:32;;;;;;;2.80;1.27;;;;;;;10.95;50.26;100819.69;4943121;29;20106;-58
2021/12/07 06:36:01;;;;;;;4.03;1.70;;;;;;;10.93;50.42;100827.03;4960236;29;20499;-56
2021/12/07 06:38:28;;;;;;;10.77;1.40;;;;;;;10.95;50.31;100824.19;4942800;29;20019;-58
2021/12/07 06:40:54;;;;;;;7.18;1.10;;;;;;;10.94;50.33;100823.34;4959569;29;20078;-58
2021/12/07 06:43:19;;;;;;;1.63;1.35;;;;;;;10.95;50.13;100824.19;4959500;29;20481;-58
2021/12/07 06:45:45;;;;;;;3.75;1.17;;;;;;;10.91;49.80;100818.28;4959070;29;20031;-57
2021/12/07 06:48:10;;;;;;;5.68;1.30;;;;;;;10.93;50.56;100831.53;4959168;29;20061;-58
2021/12/07 06:50:36;;;;;;;5.32;1.30;;;;;;;10.92;50.30;100825.31;4959494;29;20480;-56
2021/12/07 06:53:03;;;;;;;7.00;1.98;;;;;;;10.90;50.92;100826.44;4959350;29;20094;-57
2021/12/07 06:55:28;;;;;;;8.30;0.98;;;;;;;10.91;50.28;100831.66;4942009;29;20023;-58
2021/12/07 06:57:54;;;;;;;5.45;0.85;;;;;;;10.91;50.52;100841.53;4959589;29;20081;-57
2021/12/07 07:00:20;;;;;;;6.10;1.33;;;;;;;10.91;50.11;100834.34;4959185;29;20027;-58
2021/12/07 07:02:46;;;;;;;5.60;1.70;;;;;;;10.92;50.21;100836.03;4959135;29;20028;-57
2021/12/07 07:05:11;;;;;;;5.13;1.40;;;;;;;10.93;50.34;100829.69;4942300;29;20031;-57
2021/12/07 07:07:38;;;;;;;5.20;1.20;;;;;;;10.94;50.58;100828.69;4958859;29;20032;-57
2021/12/07 07:10:05;;;;;;;8.43;1.70;;;;;;;10.95;50.36;100832.22;4959021;29;20079;-58
2021/12/07 07:12:30;;;;;;;5.05;1.60;;;;;;;10.98;50.37;100835.50;4959222;29;20027;-57
2021/12/07 07:14:55;;;;;;;7.75;1.63;;;;;;;11.00;50.40;100822.81;4958614;28;20038;-57
2021/12/07 07:17:21;;;;;;;6.47;1.65;;;;;;;11.03;50.36;100833.28;4959120;29;20055;-58
2021/12/07 07:19:46;;;;;;;4.68;1.10;;;;;;;11.04;50.54;100837.66;4959319;29;20479;-58
2021/12/07 07:22:12;;;;;;;11.95;1.50;;;;;;;11.05;50.04;100842.03;4958635;29;20380;-56
2021/12/07 07:24:37;;;;;;;2.72;1.02;;;;;;;11.07;50.04;100845.44;4941944;29;20042;-58
2021/12/07 07:27:05;;;;;;;7.82;1.98;;;;;;;11.08;50.26;100839.09;4942151;29;20035;-58
2021/12/07 07:29:30;;;;;;;8.93;1.98;;;;;;;11.09;50.41;100839.94;4941274;29;20039;-57
2021/12/07 07:31:57;;;;;;;5.60;1.15;;;;;;;11.10;50.16;100838.97;4958878;29;20027;-58
2021/12/07 07:34:23;;;;;;;16.88;1.77;;;;;;;11.13;50.11;100837.84;4958752;29;20062;-58
2021/12/07 07:36:48;;;;;;;6.90;1.27;;;;;;;11.13;50.23;100836.03;4958279;28;20110;-58
2021/12/07 07:39:13;;;;;;;11.90;1.52;;;;;;;11.14;50.54;100840.38;4941443;29;20027;-58
2021/12/07 07:41:39;;;;;;;5.55;2.03;;;;;;;11.11;50.27;100836.13;4958384;29;20031;-58
2021/12/07 07:44:05;;;;;;;8.98;1.30;;;;;;;11.14;49.93;100848.44;4957981;29;20031;-57
2021/12/07 07:46:30;;;;;;;5.22;1.42;;;;;;;11.13;50.15;100837.84;4958368;29;20480;-58
2021/12/07 07:48:56;;;;;;;8.75;1.13;;;;;;;11.13;49.34;100832.50;4958500;29;20415;-57
2021/12/07 07:51:22;;;;;;;8.77;1.58;;;;;;;11.14;50.01;100835.03;4940972;29;20031;-57
2021/12/07 07:53:48;;;;;;;6.15;2.70;;;;;;;11.16;50.41;100834.91;4958476;29;20039;-57
2021/12/07 07:56:14;;;;;;;6.13;1.40;;;;;;;11.19;50.06;100830.13;4958046;29;20506;-57
2021/12/07 07:58:39;;;;;;;11.80;1.55;;;;;;;11.22;50.33;100827.19;4941178;29;20031;-57
2021/12/07 08:01:05;;;;;;;10.07;1.80;;;;;;;11.24;49.91;100827.03;4940985;29;20042;-58
2021/12/07 08:03:30;;;;;;;2.45;0.90;;;;;;;11.26;49.73;100830.44;4958027;29;20034;-57
2021/12/07 08:05:55;;;;;;;2.65;1.50;;;;;;;11.26;49.75;100831.28;4957872;29;20056;-58
2021/12/07 08:08:21;;;;;;;9.57;2.47;;;;;;;11.25;50.29;100842.16;4957514;29;20023;-57
2021/12/07 08:10:47;;;;;;;3.72;1.33;;;;;;;11.28;49.43;100842.72;4940736;29;20094;-57
2021/12/07 08:13:14;;;;;;;6.88;1.55;;;;;;;11.30;49.55;100850.66;4957472;29;20031;-56
2021/12/07 08:15:42;;;;;;;4.97;0.90;;;;;;;11.30;49.72;100839.94;4958023;29;20110;-58
2021/12/07 08:18:10;;;;;;;5.63;1.77;;;;;;;11.33;49.64;100845.88;4958172;29;20028;-58
2021/12/07 08:20:36;;;;;;;5.70;1.60;;;;;;;11.35;49.16;100845.72;4957353;29;20054;-57
2021/12/07 08:23:05;;;;;;;8.30;1.38;;;;;;;11.38;49.83;100856.19;4957752;29;20082;-57
2021/12/07 08:25:32;;;;;;;2.83;1.27;;;;;;;11.40;49.10;100852.38;4957421;29;20106;-57
2021/12/07 08:27:58;;;;;;;7.47;1.95;;;;;;;11.43;49.40;100862.84;4957140;29;20448;-58
2021/12/07 08:30:24;;;;;;;7.10;2.22;;;;;;;11.47;49.73;100856.22;4957300;29;20118;-58
2021/12/07 08:32:49;;;;;;;7.78;1.92;;;;;;;11.49;50.01;100858.78;4940468;29;20424;-58
2021/12/07 08:35:16;;;;;;;10.02;1.95;;;;;;;11.52;49.33;100866.56;4940239;29;20058;-58
2021/12/07 08:37:44;;;;;;;5.53;2.17;;;;;;;11.56;49.59;100862.63;4940238;29;20031;-58
2021/12/07 08:40:10;;;;;;;9.75;2.08;;;;;;;11.57;49.57;100869.69;4957418;29;20031;-58
2021/12/07 08:42:37;;;;;;;7.03;1.63;;;;;;;11.62;49.27;100884.41;4940239;29;20019;-58
2021/12/07 08:45:04;;;;;;;10.75;1.88;;;;;;;11.62;49.39;100875.50;4957526;29;20114;-57
2021/12/07 08:47:30;;;;;;;7.05;1.85;;;;;;;11.52;49.06;100859.38;4956337;28;20038;-57
2021/12/07 08:49:57;;;;;;;8.13;2.03;;;;;;;11.66;49.29;100882.31;4940486;29;20031;-58
2021/12/07 08:52:23;;;;;;;8.50;2.22;;;;;;;11.64;49.31;100865.50;4957095;29;20102;-57
2021/12/07 08:59:59;;;;;;;7.32;1.95;;;;;;;11.74;48.82;100850.31;4957192;29;20042;-57
2021/12/07 09:02:26;;;;;;;10.57;2.70;;;;;;;11.79;49.48;100842.69;4939999;29;20047;-57
2021/12/07 09:04:53;;;;;;;5.25;2.15;;;;;;;11.82;49.62;100837.06;4939506;29;20568;-57
2021/12/07 09:07:20;;;;;;;9.23;2.25;;;;;;;11.89;49.42;100838.19;4939224;29;20094;-57
2021/12/07 09:09:45;;;;;;;9.60;2.35;;;;;;;11.95;49.55;100832.28;4956480;29;20158;-57
2021/12/07 09:12:13;;;;;;;7.65;1.65;;;;;;;11.99;49.10;100825.66;4956946;29;20035;-57
2021/12/07 09:14:39;;;;;;;13.55;2.05;;;;;;;12.05;49.26;100832.31;4956916;29;20023;-57
2021/12/07 09:17:05;;;;;;;6.95;2.08;;;;;;;12.08;49.07;100816.78;4956852;29;20035;-57
2021/12/07 09:19:31;;;;;;;7.70;2.30;;;;;;;12.13;48.90;100819.88;4939619;29;20030;-58
2021/12/07 09:21:57;;;;;;;9.57;1.70;;;;;;;12.18;48.97;100820.31;4956731;29;20082;-57
2021/12/07 09:24:23;;;;;;;10.13;2.22;;;;;;;12.33;48.67;100822.59;4939768;29;20424;-58
2021/12/07 09:26:49;;;;;;;6.95;2.50;;;;;;;12.39;48.63;100817.50;4956698;29;20540;-57
2021/12/07 09:29:14;;;;;;;5.22;1.73;;;;;;;12.55;48.49;100819.63;4956542;29;20543;-57
2021/12/07 09:31:41;;;;;;;7.65;2.30;;;;;;;12.74;48.84;100824.97;4956799;29;20058;-57
2021/12/07 09:34:06;;;;;;;8.05;1.88;;;;;;;13.01;47.94;100833.13;4940086;29;20443;-57
2021/12/07 09:36:32;;;;;;;10.48;1.55;;;;;;;13.29;47.36;100821.47;4956717;29;20031;-57
2021/12/07 09:38:58;;;;;;;7.40;1.40;;;;;;;13.69;46.97;100828.41;4939902;29;20031;-57
2021/12/07 09:41:24;;;;;;;8.88;1.95;;;;;;;14.10;46.16;100829.75;4957043;29;20175;-57
2021/12/07 09:43:50;;;;;;;7.38;2.40;;;;;;;14.51;46.44;100832.72;4956111;29;20571;-58
2021/12/07 09:46:16;;;;;;;9.30;1.77;;;;;;;14.87;45.29;100809.28;4956914;29;20051;-57
2021/12/07 09:48:42;;;;;;;4.55;1.48;;;;;;;15.28;46.95;100820.31;4940121;29;20023;-57
2021/12/07 09:51:10;;;;;;;6.85;1.77;;;;;;;15.64;45.97;100813.78;4956677;29;20500;-57
2021/12/07 09:53:36;;;;;;;7.60;2.38;;;;;;;15.99;45.65;100804.66;4923702;29;20035;-57
2021/12/07 09:56:04;;;;;;;12.20;1.90;;;;;;;16.33;45.92;100797.28;4939584;29;20045;-57
2021/12/07 09:58:29;;;;;;;9.25;2.10;;;;;;;16.57;45.07;100783.81;4956942;28;20024;-57
2021/12/07 10:00:55;;;;;;;5.40;1.85;;;;;;;16.86;44.25;100797.66;4956735;29;20082;-57
2021/12/07 10:03:23;;;;;;;5.85;2.60;;;;;;;17.10;44.56;100782.41;4956952;29;20503;-57
2021/12/07 10:05:49;;;;;;;8.38;1.90;;;;;;;17.32;44.01;100789.78;4956640;29;20110;-57
2021/12/07 10:08:14;;;;;;;8.15;2.65;;;;;;;17.53;44.31;100802.78;4956528;29;20428;-57
2021/12/07 10:10:51;;;;;;;7.35;1.88;;;;;;;17.67;43.27;100805.59;4956440;29;20051;-57
2021/12/07 10:13:16;;;;;;;15.77;2.08;;;;;;;17.79;43.23;100796.06;4956554;29;20522;-57
2021/12/07 10:15:45;;;;;;;11.48;1.80;;;;;;;17.91;42.52;100783.84;4957022;29;20035;-57
2021/12/07 10:18:12;;;;;;;15.77;1.73;;;;;;;17.97;43.07;100785.84;4956704;29;20031;-58
2021/12/07 10:20:47;;;;;;;10.15;1.45;;;;;;;18.11;42.74;100786.09;4957037;29;20034;-58
2021/12/07 10:23:21;;;;;;;5.38;1.40;;;;;;;18.22;43.31;100778.41;4956688;29;20134;-57
2021/12/07 10:26:01;;;;;;;8.18;1.30;;;;;;;18.37;43.21;100773.03;4957034;29;20060;-58
2021/12/07 10:28:37;;;;;;;7.38;2.22;;;;;;;18.50;42.39;100776.00;4939529;29;20443;-57
2021/12/07 10:31:15;;;;;;;5.32;1.38;;;;;;;18.59;42.88;100777.66;4957114;29;20090;-57
2021/12/07 10:33:53;;;;;;;11.13;1.55;;;;;;;18.71;42.87;100770.75;4956888;29;20031;-59
2021/12/07 10:36:21;;;;;;;12.93;2.25;;;;;;;18.77;41.92;100767.28;4956752;29;20023;-59
2021/12/07 10:39:17;;;;;;;2.13;1.33;;;;;;;18.82;41.73;100751.28;4956511;29;20035;-59
2021/12/07 10:41:51;;;;;;;6.55;1.63;;;;;;;18.90;42.08;100744.97;4956615;29;20023;-59
2021/12/07 10:44:28;;;;;;;3.30;0.90;;;;;;;18.95;41.92;100721.66;4956902;29;20030;-59
2021/12/07 10:47:04;;;;;;;5.72;1.40;;;;;;;19.02;41.75;100721.75;4956482;29;20106;-59
2021/12/07 10:49:51;;;;;;;6.95;1.60;;;;;;;19.03;41.56;100713.44;4956241;29;20476;-59
2021/12/07 10:52:21;;;;;;;8.82;1.38;;;;;;;19.11;41.37;100705.19;4956317;29;20023;-59
2021/12/07 10:55:20;;;;;;;7.80;2.20;;;;;;;19.27;41.64;100697.84;4956520;29;20051;-59
2021/12/07 10:58:12;;;;;;;7.97;1.70;;;;;;;19.26;41.37;100701.63;4908322;29;20149;-59
2021/12/07 11:00:42;;;;;;;4.85;1.40;;;;;;;19.41;41.08;100694.31;4953862;29;20547;-59
2021/12/07 11:03:11;;;;;;;10.20;2.40;;;;;;;19.50;41.01;100693.19;4955971;29;20027;-59
2021/12/07 11:05:38;;;;;;;8.52;1.08;;;;;;;19.46;41.43;100683.72;4955892;29;20082;-59
2021/12/07 11:08:05;;;;;;;4.80;1.70;;;;;;;19.54;40.82;100678.19;4956274;29;20082;-59
2021/12/07 11:10:45;;;;;;;9.00;2.10;;;;;;;19.43;41.00;100665.91;4956822;28;20059;-59
2021/12/07 11:13:25;;;;;;;9.48;1.65;;;;;;;19.54;40.56;100656.47;4958465;29;20435;-59
2021/12/07 11:15:58;;;;;;;6.38;1.90;;;;;;;19.53;40.33;100661.03;4958313;29;20477;-59
2021/12/07 11:18:36;;;;;;;6.57;2.45;;;;;;;19.42;40.50;100656.09;4958064;29;20041;-59
2021/12/07 11:21:09;;;;;;;6.65;2.28;;;;;;;19.52;40.66;100661.22;4958270;29;20035;-59
2021/12/07 11:23:39;;;;;;;7.40;1.83;;;;;;;19.59;40.38;100660.28;4958207;29;20027;-60
2021/12/07 11:31:25;;;;;;;11.10;2.30;;;;;;;19.70;39.75;100642.63;4958018;29;20123;-59
2021/12/07 11:33:53;;;;;;;7.93;1.98;;;;;;;19.72;39.95;100645.97;4958063;29;20031;-59
2021/12/07 11:36:28;;;;;;;10.85;1.75;;;;;;;19.80;39.57;100628.69;4958555;29;20069;-59
2021/12/07 11:38:56;;;;;;;7.70;2.05;;;;;;;19.83;39.07;100642.75;4941317;29;20102;-59
2021/12/07 11:41:31;;;;;;;6.07;1.83;;;;;;;19.86;39.65;100638.81;4958003;29;20387;-59
2021/12/07 11:44:04;;;;;;;8.13;1.73;;;;;;;19.88;39.56;100642.19;4958064;29;20031;-59
2021/12/07 11:46:31;;;;;;;6.90;1.77;;;;;;;19.82;39.46;100646.50;4958186;29;20082;-59
2021/12/07 11:49:13;;;;;;;7.53;2.10;;;;;;;19.86;39.78;100639.66;4958052;29;20051;-59
2021/12/07 11:51:39;;;;;;;8.50;1.48;;;;;;;19.91;39.27;100631.75;4958078;29;20039;-59
2021/12/07 11:54:06;;;;;;;9.07;1.60;;;;;;;19.91;39.38;100637.19;4957889;29;20039;-59
2021/12/07 11:56:31;;;;;;;9.85;2.00;;;;;;;19.81;39.24;100625.81;4957470;29;20034;-59
2021/12/07 11:58:57;;;;;;;10.75;2.08;;;;;;;19.85;38.87;100632.53;4957720;29;20059;-59
2021/12/07 12:01:23;;;;;;;9.45;2.33;;;;;;;19.83;39.25;100623.72;4957751;29;20054;-59
2021/12/07 12:03:48;;;;;;;12.63;2.00;;;;;;;19.86;39.03;100623.34;4957523;29;20081;-59
2021/12/07 12:06:14;;;;;;;9.90;1.70;;;;;;;19.84;39.20;100616.41;4957446;29;20476;-59
2021/12/07 12:08:40;;;;;;;7.78;2.13;;;;;;;19.74;39.40;100617.56;4912508;29;1308479;-59
2021/12/07 12:11:20;;;;;;;11.65;5.70;;;;;;;19.78;39.34;100623.47;4941879;29;20035;-59
2021/12/07 12:14:16;;;;;;;5.95;1.60;;;;;;;19.70;39.51;100607.28;4941716;29;20043;-59
2021/12/07 12:17:10;;;;;;;4.03;2.00;;;;;;;19.61;39.14;100611.16;4941877;29;20030;-59
2021/12/07 12:19:46;;;;;;;5.28;2.10;;;;;;;19.48;38.88;100597.44;4942266;29;20034;-59
2021/12/07 12:22:15;;;;;;;5.45;1.58;;;;;;;19.37;39.05;100589.75;4957964;28;20102;-59
2021/12/07 12:24:51;;;;;;;5.70;1.40;;;;;;;19.28;39.18;100583.59;4925454;29;20027;-59
2021/12/07 12:27:18;;;;;;;5.15;1.02;;;;;;;19.22;39.36;100588.94;4958648;29;20428;-59
2021/12/07 12:29:46;;;;;;;7.10;1.05;;;;;;;19.11;39.20;100574.84;4958880;29;20166;-59
2021/12/07 12:32:12;;;;;;;3.40;1.15;;;;;;;18.94;39.51;100564.38;4958776;29;20032;-59
2021/12/07 12:34:48;;;;;;;3.80;1.00;;;;;;;18.87;39.37;100560.75;4959088;29;20031;-59
2021/12/07 12:37:22;;;;;;;8.68;1.60;;;;;;;18.72;39.36;100557.19;4941440;29;20113;-60
2021/12/07 12:39:57;;;;;;;4.78;1.33;;;;;;;18.54;39.84;100550.28;4959066;29;20031;-59
2021/12/07 12:42:47;;;;;;;5.03;2.75;;;;;;;18.36;39.38;100546.25;4959087;29;20028;-60
2021/12/07 12:45:20;;;;;;;6.57;1.65;;;;;;;18.20;39.43;100547.22;4950918;29;20043;-60
2021/12/07 12:47:45;;;;;;;;;;;;;;;18.08;39.80;100548.72;4958376;29;20023;-59
2021/12/07 12:50:15;;;;;;;7.20;1.42;;;;;;;17.91;39.32;100539.91;4957955;29;19918;-59
2021/12/07 12:52:49;;;;;;;4.75;1.40;;;;;;;17.79;40.06;100529.69;4958073;28;20399;-59
2021/12/07 12:55:46;;;;;;;8.07;2.63;;;;;;;17.70;40.91;100528.09;4957577;29;20400;-59
2021/12/07 12:58:15;;;;;;;3.92;1.33;;;;;;;17.61;40.86;100519.19;4957553;29;20491;-59
2021/12/07 13:01:14;;;;;;;7.18;1.42;;;;;;;17.49;40.17;100515.19;4957855;29;20039;-59
2021/12/07 13:03:40;;;;;;;6.53;1.20;;;;;;;17.40;40.53;100505.44;4957261;29;20110;-59
2021/12/07 13:06:05;;;;;;;7.95;1.48;;;;;;;17.25;39.65;100485.59;4957155;29;20055;-58
2021/12/07 13:08:31;;;;;;;5.05;1.10;;;;;;;17.13;39.91;100492.44;4956861;29;20031;-59
2021/12/07 13:11:02;;;;;;;2.03;0.98;;;;;;;16.96;39.65;100485.44;4957102;29;20038;-59
2021/12/07 13:13:33;;;;;;;9.93;1.33;;;;;;;16.83;40.05;100464.41;4940041;29;20046;-59
2021/12/07 13:15:59;;;;;;;4.30;1.15;;;;;;;16.72;40.19;100465.63;4956994;29;20031;-59
2021/12/07 13:18:32;;;;;;;5.88;1.10;;;;;;;16.61;40.20;100449.78;4957070;29;20024;-59
2021/12/07 13:20:57;;;;;;;5.65;0.85;;;;;;;16.56;39.90;100445.94;4957714;29;20443;-59